createdAt,value
2023-01-08T00:01:18.283Z,7.00
2023-01-08T00:03:47.014Z,7.00
2023-01-08T00:06:18.020Z,7.00
2023-01-08T00:08:47.533Z,7.00
2023-01-08T00:11:16.291Z,6.90
2023-01-08T00:13:44.845Z,6.90
2023-01-08T00:16:15.262Z,6.90
2023-01-08T00:18:43.942Z,6.90
2023-01-08T00:21:12.400Z,6.90
2023-01-08T00:23:40.581Z,6.90
2023-01-08T00:26:11.885Z,6.90
2023-01-08T00:28:40.844Z,6.80
2023-01-08T00:31:11.166Z,6.80
2023-01-08T00:33:39.916Z,6.80
2023-01-08T00:36:09.880Z,6.90
2023-01-08T00:38:38.031Z,6.90
2023-01-08T00:41:06.621Z,6.90
2023-01-08T00:43:36.519Z,6.90
2023-01-08T00:46:05.306Z,6.90
2023-01-08T00:48:37.320Z,6.90
2023-01-08T00:51:07.127Z,6.90
2023-01-08T00:53:35.763Z,7.00
2023-01-08T00:56:05.270Z,7.00
2023-01-08T00:58:33.750Z,7.10
2023-01-08T01:01:03.528Z,7.10
2023-01-08T01:03:32.782Z,7.10
2023-01-08T01:06:04.324Z,7.20
2023-01-08T01:08:33.010Z,7.20
2023-01-08T01:11:01.173Z,7.20
2023-01-08T01:13:29.656Z,7.20
2023-01-08T01:16:03.148Z,7.10
2023-01-08T01:18:32.210Z,7.10
2023-01-08T01:21:00.334Z,7.20
2023-01-08T01:23:28.663Z,7.30
2023-01-08T01:25:56.806Z,7.30
2023-01-08T01:28:25.237Z,7.30
2023-01-08T01:30:57.856Z,7.30
2023-01-08T01:33:27.800Z,7.40
2023-01-08T01:36:05.411Z,7.40
2023-01-08T01:38:33.739Z,7.40
2023-01-08T01:41:02.069Z,7.30
2023-01-08T01:43:41.303Z,7.40
2023-01-08T01:46:21.098Z,7.50
2023-01-08T01:48:54.684Z,7.70
2023-01-08T01:51:23.602Z,7.70
2023-01-08T01:53:51.767Z,7.70
2023-01-08T01:56:19.847Z,7.60
2023-01-08T01:58:47.926Z,7.50
2023-01-08T02:01:16.844Z,7.50
2023-01-08T02:03:45.316Z,7.50
2023-01-08T02:06:30.515Z,7.60
2023-01-08T02:09:04.208Z,7.50
2023-01-08T02:11:42.318Z,7.40
2023-01-08T02:14:17.713Z,7.30
2023-01-08T02:16:52.076Z,7.40
2023-01-08T02:19:38.895Z,7.50
2023-01-08T02:22:19.476Z,7.50
2023-01-08T02:24:56.774Z,7.30
2023-01-08T02:27:29.310Z,7.30
2023-01-08T02:29:58.111Z,7.40
2023-01-08T02:32:28.439Z,7.40
2023-01-08T02:34:57.243Z,7.40
2023-01-08T02:37:25.634Z,7.40
2023-01-08T02:40:03.737Z,7.50
2023-01-08T02:42:41.739Z,7.50
2023-01-08T02:45:18.770Z,7.50
2023-01-08T02:47:50.758Z,7.50
2023-01-08T02:50:25.839Z,7.50
2023-01-08T02:53:00.730Z,7.50
2023-01-08T02:55:31.738Z,7.50
2023-01-08T02:58:01.869Z,7.50
2023-01-08T03:00:30.644Z,7.50
2023-01-08T03:03:07.136Z,7.50
2023-01-08T03:05:35.606Z,7.60
2023-01-08T03:08:04.135Z,7.70
2023-01-08T03:10:33.911Z,7.70
2023-01-08T03:13:10.353Z,7.70
2023-01-08T03:15:46.235Z,7.60
2023-01-08T03:18:20.046Z,7.60
2023-01-08T03:20:50.922Z,7.50
2023-01-08T03:23:21.193Z,7.50
2023-01-08T03:25:50.369Z,7.50
2023-01-08T03:28:23.835Z,7.50
2023-01-08T03:30:54.548Z,7.50
2023-01-08T03:33:25.123Z,7.60
2023-01-08T03:35:56.660Z,7.60
2023-01-08T03:38:28.444Z,7.70
2023-01-08T03:40:59.115Z,7.80
2023-01-08T03:43:29.228Z,7.80
2023-01-08T03:46:00.892Z,7.80
2023-01-08T03:48:31.294Z,7.80
2023-01-08T03:50:59.348Z,7.80
2023-01-08T03:53:27.498Z,7.90
2023-01-08T03:55:56.573Z,7.90
2023-01-08T03:58:24.652Z,7.90
2023-01-08T04:00:54.422Z,7.90
2023-01-08T04:03:24.584Z,8.00
2023-01-08T04:05:52.732Z,8.00
2023-01-08T04:08:20.819Z,8.00
2023-01-08T04:10:49.008Z,8.00
2023-01-08T04:13:17.085Z,8.10
2023-01-08T04:15:49.883Z,8.10
2023-01-08T04:18:19.945Z,8.10
2023-01-08T04:20:49.072Z,8.10
2023-01-08T04:23:17.590Z,8.10
2023-01-08T04:25:46.025Z,8.20
2023-01-08T04:28:14.150Z,8.10
2023-01-08T04:30:42.291Z,8.20
2023-01-08T04:33:10.466Z,8.20
2023-01-08T04:35:39.908Z,8.20
2023-01-08T04:38:08.727Z,8.20
2023-01-08T04:40:37.683Z,8.30
2023-01-08T04:43:05.750Z,8.30
2023-01-08T04:45:34.065Z,8.20
2023-01-08T04:48:02.182Z,8.30
2023-01-08T04:50:30.599Z,8.40
2023-01-08T04:53:00.356Z,8.40
2023-01-08T04:55:28.466Z,8.40
2023-01-08T04:57:56.849Z,8.50
2023-01-08T05:00:24.934Z,8.70
2023-01-08T05:02:53.114Z,8.90
2023-01-08T05:05:21.322Z,8.80
2023-01-08T05:07:49.407Z,8.80
2023-01-08T05:10:19.340Z,9.00
2023-01-08T05:12:47.446Z,9.00
2023-01-08T05:15:15.590Z,9.00
2023-01-08T05:17:43.853Z,9.10
2023-01-08T05:20:12.572Z,9.10
2023-01-08T05:22:40.648Z,9.20
2023-01-08T05:25:09.600Z,9.10
2023-01-08T05:27:39.067Z,9.10
2023-01-08T05:30:08.660Z,9.10
2023-01-08T05:32:37.127Z,9.00
2023-01-08T05:35:05.700Z,9.10
2023-01-08T05:37:35.593Z,9.10
2023-01-08T05:40:03.777Z,9.10
2023-01-08T05:42:31.889Z,9.10
2023-01-08T05:45:01.794Z,9.00
2023-01-08T05:47:31.919Z,8.90
2023-01-08T05:50:00.135Z,8.80
2023-01-08T05:52:28.720Z,8.70
2023-01-08T05:54:57.119Z,8.70
2023-01-08T05:57:25.214Z,8.70
2023-01-08T05:59:53.599Z,8.70
2023-01-08T06:02:23.180Z,8.70
2023-01-08T06:04:51.327Z,8.60
2023-01-08T06:07:19.739Z,8.80
2023-01-08T06:09:47.810Z,8.70
2023-01-08T06:12:16.127Z,8.70
2023-01-08T06:14:44.560Z,8.70
2023-01-08T06:17:12.752Z,8.80
2023-01-08T06:19:42.665Z,8.70
2023-01-08T06:22:10.751Z,8.70
2023-01-08T06:24:38.819Z,8.70
2023-01-08T06:27:07.199Z,8.70
2023-01-08T06:29:35.325Z,8.70
2023-01-08T06:32:03.658Z,8.70
2023-01-08T06:34:31.739Z,8.70
2023-01-08T06:37:01.513Z,8.70
2023-01-08T06:39:29.915Z,8.70
2023-01-08T06:41:58.030Z,8.70
2023-01-08T06:44:26.507Z,8.70
2023-01-08T06:46:54.823Z,8.80
2023-01-08T06:49:23.705Z,8.80
2023-01-08T06:51:51.843Z,8.80
2023-01-08T06:54:21.740Z,8.80
2023-01-08T06:56:54.041Z,8.70
2023-01-08T06:59:22.786Z,8.70
2023-01-08T07:01:51.646Z,8.70
2023-01-08T07:04:20.289Z,8.70
2023-01-08T07:06:48.622Z,8.70
2023-01-08T07:09:17.280Z,8.60
2023-01-08T07:11:46.767Z,8.70
2023-01-08T07:14:15.872Z,8.70
2023-01-08T07:16:44.273Z,8.70
2023-01-08T07:19:12.643Z,8.70
2023-01-08T07:21:40.827Z,8.60
2023-01-08T07:24:09.310Z,8.60
2023-01-08T07:26:39.639Z,8.60
2023-01-08T07:29:09.320Z,8.60
2023-01-08T07:31:37.699Z,8.50
2023-01-08T07:34:06.326Z,8.50
2023-01-08T07:36:34.902Z,8.60
2023-01-08T07:39:03.238Z,8.50
2023-01-08T07:41:31.636Z,8.50
2023-01-08T07:43:59.802Z,8.50
2023-01-08T07:46:29.763Z,8.50
2023-01-08T07:48:58.443Z,8.40
2023-01-08T07:51:26.609Z,8.40
2023-01-08T07:53:56.644Z,8.40
2023-01-08T07:56:26.255Z,8.40
2023-01-08T07:58:54.551Z,8.30
2023-01-08T08:01:23.135Z,8.40
2023-01-08T08:03:52.923Z,8.40
2023-01-08T08:06:21.082Z,8.40
2023-01-08T08:08:49.290Z,8.40
2023-01-08T08:11:17.768Z,8.40
2023-01-08T08:13:47.539Z,8.40
2023-01-08T08:16:15.824Z,8.40
2023-01-08T08:18:44.096Z,8.40
2023-01-08T08:21:13.944Z,8.40
2023-01-08T08:23:42.125Z,8.40
2023-01-08T08:26:10.579Z,8.30
2023-01-08T08:28:38.779Z,8.40
2023-01-08T08:31:07.469Z,8.40
2023-01-08T08:33:35.662Z,8.30
2023-01-08T08:36:03.834Z,8.40
2023-01-08T08:38:33.733Z,8.40
2023-01-08T08:41:01.933Z,8.40
2023-01-08T08:43:30.083Z,8.40
2023-01-08T08:45:58.678Z,8.40
2023-01-08T08:48:27.113Z,8.30
2023-01-08T08:50:55.730Z,8.40
2023-01-08T08:53:24.750Z,8.40
2023-01-08T08:55:54.974Z,8.50
2023-01-08T08:58:23.403Z,8.50
2023-01-08T09:00:51.843Z,8.50
2023-01-08T09:03:20.032Z,8.50
2023-01-08T09:05:48.221Z,8.50
2023-01-08T09:08:16.679Z,8.60
2023-01-08T09:10:44.758Z,8.60
2023-01-08T09:13:14.233Z,8.60
2023-01-08T09:15:42.624Z,8.60
2023-01-08T09:18:10.909Z,8.70
2023-01-08T09:20:39.327Z,8.80
2023-01-08T09:23:08.065Z,8.70
2023-01-08T09:25:36.215Z,8.80
2023-01-08T09:28:06.137Z,8.70
2023-01-08T09:30:36.620Z,8.90
2023-01-08T09:33:05.486Z,8.90
2023-01-08T09:35:34.808Z,9.00
2023-01-08T09:38:03.109Z,8.90
2023-01-08T09:40:36.482Z,8.80
2023-01-08T09:43:06.120Z,8.90
2023-01-08T09:45:38.940Z,9.00
2023-01-08T09:48:13.406Z,9.00
2023-01-08T09:50:41.706Z,9.00
2023-01-08T09:53:14.207Z,9.00
2023-01-08T09:55:43.721Z,9.00
2023-01-08T09:58:23.199Z,9.10
2023-01-08T10:00:53.192Z,9.00
2023-01-08T10:03:22.717Z,9.10
2023-01-08T10:05:52.952Z,9.10
2023-01-08T10:08:21.054Z,9.10
2023-01-08T10:10:49.324Z,9.20
2023-01-08T10:13:17.746Z,9.20
2023-01-08T10:15:46.168Z,9.20
2023-01-08T10:18:19.186Z,9.20
2023-01-08T10:20:47.338Z,9.20
2023-01-08T10:23:17.245Z,9.30
2023-01-08T10:25:51.478Z,9.20
2023-01-08T10:28:22.490Z,9.20
2023-01-08T10:30:52.840Z,9.20
2023-01-08T10:33:26.780Z,9.30
2023-01-08T10:35:59.152Z,9.30
2023-01-08T10:38:34.055Z,9.30
2023-01-08T10:41:04.895Z,9.40
2023-01-08T10:43:36.030Z,9.40
2023-01-08T10:46:06.418Z,9.40
2023-01-08T10:48:38.443Z,9.50
2023-01-08T10:51:08.961Z,9.50
2023-01-08T10:53:37.103Z,9.50
2023-01-08T10:56:06.547Z,9.50
2023-01-08T10:58:43.296Z,9.50
2023-01-08T11:01:13.153Z,9.50
2023-01-08T11:03:43.423Z,9.50
2023-01-08T11:06:13.689Z,9.60
2023-01-08T11:08:53.592Z,9.60
2023-01-08T11:11:22.517Z,9.60
2023-01-08T11:13:58.579Z,9.60
2023-01-08T11:16:38.450Z,9.60
2023-01-08T11:19:17.855Z,9.60
2023-01-08T11:21:57.447Z,9.60
2023-01-08T11:24:29.125Z,9.70
2023-01-08T11:27:04.268Z,9.70
2023-01-08T11:29:39.423Z,9.70
2023-01-08T11:32:39.104Z,9.70
2023-01-08T11:35:16.658Z,9.70
2023-01-08T11:37:51.308Z,9.70
2023-01-08T11:40:24.826Z,9.70
2023-01-08T11:43:11.839Z,9.80
2023-01-08T11:45:52.603Z,9.80
2023-01-08T11:48:40.451Z,9.80
2023-01-08T11:51:35.757Z,9.80
2023-01-08T11:54:14.341Z,9.80
2023-01-08T11:56:59.775Z,9.90
2023-01-08T11:59:34.824Z,9.80
2023-01-08T12:02:11.898Z,9.90
2023-01-08T12:05:02.792Z,9.90
2023-01-08T12:07:41.682Z,9.90
2023-01-08T12:10:16.321Z,9.90
2023-01-08T12:13:01.292Z,9.90
2023-01-08T12:15:42.156Z,9.90
2023-01-08T12:18:26.842Z,9.90
2023-01-08T12:21:01.035Z,9.90
2023-01-08T12:23:45.566Z,9.90
2023-01-08T12:26:21.003Z,10.00
2023-01-08T12:29:29.712Z,9.90
2023-01-08T12:32:18.430Z,10.00
2023-01-08T12:34:55.920Z,10.00
2023-01-08T12:37:29.299Z,10.00
2023-01-08T12:40:07.449Z,10.00
2023-01-08T12:42:46.712Z,10.00
2023-01-08T12:45:22.095Z,10.00
2023-01-08T12:47:55.989Z,10.00
2023-01-08T12:50:37.754Z,10.00
2023-01-08T12:53:14.565Z,10.00
2023-01-08T12:55:54.658Z,10.10
2023-01-08T12:58:40.278Z,10.10
2023-01-08T13:01:22.975Z,10.00
2023-01-08T13:03:52.247Z,10.10
2023-01-08T13:06:21.457Z,10.10
2023-01-08T13:08:52.213Z,10.10
2023-01-08T13:11:30.164Z,10.10
2023-01-08T13:14:04.349Z,10.10
2023-01-08T13:16:36.229Z,10.10
2023-01-08T13:19:05.367Z,10.20
2023-01-08T13:21:37.172Z,10.20
2023-01-08T13:24:08.721Z,10.20
2023-01-08T13:26:38.480Z,10.20
2023-01-08T13:29:25.408Z,10.20
2023-01-08T13:31:54.156Z,10.20
2023-01-08T13:34:35.137Z,10.30
2023-01-08T13:37:03.564Z,10.20
2023-01-08T13:39:37.108Z,10.30
2023-01-08T13:42:23.369Z,10.20
2023-01-08T13:44:53.616Z,10.30
2023-01-08T13:47:30.436Z,10.40
2023-01-08T13:49:59.395Z,10.40
2023-01-08T13:52:32.810Z,10.40
2023-01-08T13:55:02.935Z,10.40
2023-01-08T13:57:39.378Z,10.40
2023-01-08T14:00:10.775Z,10.40
2023-01-08T14:02:50.673Z,10.40
2023-01-08T14:05:30.541Z,10.40
2023-01-08T14:08:00.241Z,10.50
2023-01-08T14:10:30.128Z,10.40
2023-01-08T14:13:09.128Z,10.50
2023-01-08T14:15:39.627Z,10.40
2023-01-08T14:18:08.034Z,10.50
2023-01-08T14:20:38.964Z,10.40
2023-01-08T14:23:13.689Z,10.50
2023-01-08T14:25:42.690Z,10.50
2023-01-08T14:28:18.480Z,10.60
2023-01-08T14:30:50.769Z,10.60
2023-01-08T14:33:24.883Z,10.60
2023-01-08T14:35:55.114Z,10.70
2023-01-08T14:38:23.402Z,10.70
2023-01-08T14:41:01.518Z,10.70
2023-01-08T14:43:35.591Z,10.60
2023-01-08T14:46:04.420Z,10.50
2023-01-08T14:48:40.695Z,10.60
2023-01-08T14:51:11.907Z,10.60
2023-01-08T14:53:45.332Z,10.60
2023-01-08T14:56:16.014Z,10.60
2023-01-08T14:58:49.289Z,10.50
2023-01-08T15:01:19.843Z,10.40
2023-01-08T15:03:52.647Z,10.40
2023-01-08T15:06:28.163Z,10.40
2023-01-08T15:08:56.306Z,10.30
2023-01-08T15:11:27.509Z,10.30
2023-01-08T15:13:57.298Z,10.20
2023-01-08T15:16:31.028Z,10.20
2023-01-08T15:19:05.248Z,10.20
2023-01-08T15:21:34.560Z,10.20
2023-01-08T15:24:05.422Z,10.10
2023-01-08T15:26:34.550Z,10.10
2023-01-08T15:29:07.250Z,10.00
2023-01-08T15:31:47.834Z,9.90
2023-01-08T15:34:17.180Z,9.90
2023-01-08T15:36:46.486Z,9.90
2023-01-08T15:39:15.007Z,9.90
2023-01-08T15:42:01.006Z,9.90
2023-01-08T15:44:30.497Z,9.80
2023-01-08T15:46:58.604Z,9.80
2023-01-08T15:49:26.926Z,9.80
2023-01-08T15:51:55.047Z,9.80
2023-01-08T15:54:26.668Z,9.80
2023-01-08T15:56:54.799Z,9.70
2023-01-08T15:59:22.900Z,9.60
2023-01-08T16:01:52.684Z,9.50
2023-01-08T16:04:20.824Z,9.60
2023-01-08T16:06:51.551Z,9.60
2023-01-08T16:09:19.648Z,9.60
2023-01-08T16:11:47.853Z,9.60
2023-01-08T16:14:16.175Z,9.60
2023-01-08T16:16:44.675Z,9.50
2023-01-08T16:19:14.165Z,9.50
2023-01-08T16:21:46.925Z,9.50
2023-01-08T16:24:15.514Z,9.40
2023-01-08T16:26:43.607Z,9.30
2023-01-08T16:29:11.774Z,9.40
2023-01-08T16:31:39.921Z,9.20
2023-01-08T16:34:08.010Z,9.20
2023-01-08T16:36:38.237Z,9.10
2023-01-08T16:39:06.840Z,9.00
2023-01-08T16:41:36.020Z,8.90
2023-01-08T16:44:04.685Z,8.80
2023-01-08T16:46:33.228Z,8.80
2023-01-08T16:49:01.613Z,8.80
2023-01-08T16:51:29.715Z,8.70
2023-01-08T16:53:59.205Z,8.70
2023-01-08T16:56:27.345Z,8.70
2023-01-08T16:58:55.424Z,8.70
2023-01-08T17:01:23.617Z,8.70
2023-01-08T17:03:51.965Z,8.70
2023-01-08T17:06:20.413Z,8.80
2023-01-08T17:08:48.515Z,8.80
2023-01-08T17:11:20.631Z,8.70
2023-01-08T17:13:49.155Z,8.70
2023-01-08T17:16:19.429Z,8.70
2023-01-08T17:18:47.705Z,8.70
2023-01-08T17:21:18.200Z,8.80
2023-01-08T17:23:46.485Z,8.80
2023-01-08T17:26:17.949Z,8.80
2023-01-08T17:28:47.290Z,8.80
2023-01-08T17:31:19.287Z,8.80
2023-01-08T17:33:50.224Z,8.70
2023-01-08T17:36:20.476Z,8.70
2023-01-08T17:38:50.098Z,8.70
2023-01-08T17:41:34.171Z,8.80
2023-01-08T17:44:02.739Z,8.70
2023-01-08T17:46:31.257Z,8.70
2023-01-08T17:48:59.378Z,8.70
2023-01-08T17:51:27.664Z,8.70
2023-01-08T17:53:57.849Z,8.70
2023-01-08T17:56:27.557Z,8.70
2023-01-08T17:58:55.765Z,8.70
2023-01-08T18:01:24.340Z,8.70
2023-01-08T18:03:53.309Z,8.80
2023-01-08T18:06:22.517Z,8.70
2023-01-08T18:08:50.629Z,8.80
2023-01-08T18:11:18.789Z,8.80
2023-01-08T18:13:48.265Z,8.90
2023-01-08T18:16:16.475Z,8.90
2023-01-08T18:18:45.059Z,8.90
2023-01-08T18:21:13.279Z,8.90
2023-01-08T18:23:41.453Z,8.90
2023-01-08T18:26:12.559Z,8.90
2023-01-08T18:28:41.088Z,8.90
2023-01-08T18:31:13.390Z,8.80
2023-01-08T18:33:41.941Z,8.80
2023-01-08T18:36:12.923Z,8.80
2023-01-08T18:38:42.611Z,8.70
2023-01-08T18:41:33.407Z,8.70
2023-01-08T18:44:02.068Z,8.70
2023-01-08T18:46:31.850Z,8.60
2023-01-08T18:49:00.221Z,8.60
2023-01-08T18:51:28.472Z,8.60
2023-01-08T18:53:57.214Z,8.60
2023-01-08T18:56:29.130Z,8.60
2023-01-08T18:58:57.839Z,8.60
2023-01-08T19:01:26.267Z,8.60
2023-01-08T19:03:56.677Z,8.60
2023-01-08T19:06:25.137Z,8.60
2023-01-08T19:08:57.634Z,8.60
2023-01-08T19:11:26.525Z,8.60
2023-01-08T19:13:56.484Z,8.60
2023-01-08T19:16:25.172Z,8.60
2023-01-08T19:18:53.594Z,8.60
2023-01-08T19:21:23.121Z,8.60
2023-01-08T19:23:51.647Z,8.60
2023-01-08T19:26:19.835Z,8.50
2023-01-08T19:28:48.327Z,8.50
2023-01-08T19:31:18.971Z,8.50
2023-01-08T19:33:47.570Z,8.50
2023-01-08T19:36:16.592Z,8.50
2023-01-08T19:38:46.163Z,8.50
2023-01-08T19:41:32.843Z,8.40
2023-01-08T19:44:01.258Z,8.40
2023-01-08T19:46:30.020Z,8.40
2023-01-08T19:48:58.792Z,8.40
2023-01-08T19:51:27.928Z,8.40
2023-01-08T19:53:58.500Z,8.40
2023-01-08T19:56:27.050Z,8.40
2023-01-08T19:58:56.625Z,8.40
2023-01-08T20:01:26.875Z,8.40
2023-01-08T20:03:57.505Z,8.40
2023-01-08T20:06:28.129Z,8.40
2023-01-08T20:08:59.361Z,8.40
2023-01-08T20:11:28.679Z,8.40
2023-01-08T20:14:00.474Z,8.40
2023-01-08T20:16:29.754Z,8.40
2023-01-08T20:18:59.590Z,8.40
2023-01-08T20:21:27.697Z,8.40
2023-01-08T20:23:59.531Z,8.40
2023-01-08T20:26:29.315Z,8.40
2023-01-08T20:28:58.601Z,8.50
2023-01-08T20:31:31.604Z,8.40
2023-01-08T20:34:01.364Z,8.40
2023-01-08T20:36:31.633Z,8.40
2023-01-08T20:39:03.406Z,8.40
2023-01-08T20:41:31.636Z,8.40
2023-01-08T20:44:01.684Z,8.40
2023-01-08T20:46:30.691Z,8.40
2023-01-08T20:49:03.154Z,8.30
2023-01-08T20:51:31.527Z,8.30
2023-01-08T20:54:01.609Z,8.20
2023-01-08T20:56:30.297Z,8.20
2023-01-08T20:58:58.671Z,8.20
2023-01-08T21:01:31.592Z,8.10
2023-01-08T21:04:00.037Z,8.10
2023-01-08T21:06:32.235Z,8.00
2023-01-08T21:09:06.671Z,8.00
2023-01-08T21:11:36.434Z,8.00
2023-01-08T21:14:05.115Z,7.90
2023-01-08T21:16:35.070Z,7.90
2023-01-08T21:19:04.564Z,7.90
2023-01-08T21:21:34.878Z,7.80
2023-01-08T21:24:08.861Z,7.70
2023-01-08T21:26:39.328Z,7.60
2023-01-08T21:29:08.875Z,7.60
2023-01-08T21:31:38.123Z,7.60
2023-01-08T21:34:08.532Z,7.60
2023-01-08T21:36:37.330Z,7.60
2023-01-08T21:39:07.240Z,7.60
2023-01-08T21:41:53.025Z,7.50
2023-01-08T21:44:40.209Z,7.50
2023-01-08T21:47:10.825Z,7.40
2023-01-08T21:49:39.223Z,7.30
2023-01-08T21:52:25.714Z,7.30
2023-01-08T21:54:56.253Z,7.30
2023-01-08T21:57:25.948Z,7.10
2023-01-08T21:59:54.111Z,7.00
2023-01-08T22:02:24.407Z,7.00
2023-01-08T22:04:55.797Z,7.00
2023-01-08T22:07:24.349Z,7.10
2023-01-08T22:09:54.088Z,7.10
2023-01-08T22:12:23.813Z,7.20
2023-01-08T22:14:54.278Z,7.20
2023-01-08T22:17:23.182Z,7.10
2023-01-08T22:19:51.522Z,7.10
2023-01-08T22:22:19.929Z,7.00
2023-01-08T22:24:48.193Z,7.00
2023-01-08T22:27:17.761Z,7.00
2023-01-08T22:29:46.048Z,7.00
2023-01-08T22:32:14.342Z,7.00
2023-01-08T22:34:42.472Z,7.00
2023-01-08T22:37:10.596Z,7.00
2023-01-08T22:39:38.863Z,7.00
2023-01-08T22:42:07.030Z,7.10
2023-01-08T22:44:36.889Z,7.10
2023-01-08T22:47:06.424Z,7.10
2023-01-08T22:49:34.616Z,7.10
2023-01-08T22:52:03.201Z,7.00
2023-01-08T22:54:31.305Z,7.00
2023-01-08T22:56:59.436Z,6.90
2023-01-08T22:59:27.985Z,7.00
2023-01-08T23:01:57.515Z,7.00
2023-01-08T23:04:25.988Z,6.90
2023-01-08T23:06:54.435Z,6.90
2023-01-08T23:09:22.559Z,6.90
2023-01-08T23:11:50.700Z,6.90
2023-01-08T23:14:18.897Z,6.80
2023-01-08T23:16:47.471Z,6.80
2023-01-08T23:19:16.994Z,6.80
2023-01-08T23:21:45.353Z,6.70
2023-01-08T23:24:14.859Z,6.70
2023-01-08T23:26:43.684Z,6.80
2023-01-08T23:29:12.456Z,6.70
2023-01-08T23:31:41.219Z,6.70
2023-01-08T23:34:09.406Z,6.60
2023-01-08T23:36:41.078Z,6.60
2023-01-08T23:39:09.333Z,6.60
2023-01-08T23:41:37.684Z,6.60
2023-01-08T23:44:07.521Z,6.50
2023-01-08T23:46:35.914Z,6.60
2023-01-08T23:49:04.184Z,6.60
2023-01-08T23:51:32.351Z,6.60
2023-01-08T23:54:01.835Z,6.50
2023-01-08T23:56:30.133Z,6.50
2023-01-08T23:58:59.049Z,6.50
